sensor_id;sensor_type;location;lat;lon;timestamp;P1;durP1;ratioP1;P2;durP2;ratioP2
38023;SDS011;23834;48.080;11.682;2023-09-12T00:00:44;8.70;;;7.80;;
38023;SDS011;23834;48.080;11.682;2023-09-12T00:03:09;7.90;;;7.10;;
38023;SDS011;23834;48.080;11.682;2023-09-12T00:05:34;8.80;;;8.00;;
38023;SDS011;23834;48.080;11.682;2023-09-12T00:07:59;9.30;;;8.40;;
38023;SDS011;23834;48.080;11.682;2023-09-12T00:10:25;8.60;;;7.77;;
38023;SDS011;23834;48.080;11.682;2023-09-12T00:12:50;8.47;;;7.67;;
38023;SDS011;23834;48.080;11.682;2023-09-12T00:15:15;8.30;;;7.47;;
38023;SDS011;23834;48.080;11.682;2023-09-12T00:17:40;9.73;;;8.73;;
38023;SDS011;23834;48.080;11.682;2023-09-12T00:20:06;8.57;;;7.73;;
38023;SDS011;23834;48.080;11.682;2023-09-12T00:22:32;8.47;;;7.67;;
38023;SDS011;23834;48.080;11.682;2023-09-12T00:24:57;8.70;;;7.90;;
38023;SDS011;23834;48.080;11.682;2023-09-12T00:27:24;9.87;;;7.60;;
38023;SDS011;23834;48.080;11.682;2023-09-12T00:29:49;9.33;;;8.40;;
38023;SDS011;23834;48.080;11.682;2023-09-12T00:32:14;8.80;;;7.90;;
38023;SDS011;23834;48.080;11.682;2023-09-12T00:34:39;8.47;;;7.53;;
38023;SDS011;23834;48.080;11.682;2023-09-12T00:37:04;9.10;;;8.20;;
38023;SDS011;23834;48.080;11.682;2023-09-12T00:39:30;9.13;;;8.23;;
38023;SDS011;23834;48.080;11.682;2023-09-12T00:41:55;7.70;;;7.03;;
38023;SDS011;23834;48.080;11.682;2023-09-12T00:44:20;8.10;;;7.40;;
38023;SDS011;23834;48.080;11.682;2023-09-12T00:46:45;8.60;;;7.77;;
38023;SDS011;23834;48.080;11.682;2023-09-12T00:49:31;8.47;;;7.70;;
38023;SDS011;23834;48.080;11.682;2023-09-12T00:51:57;9.30;;;8.13;;
38023;SDS011;23834;48.080;11.682;2023-09-12T00:54:23;9.10;;;8.20;;
38023;SDS011;23834;48.080;11.682;2023-09-12T00:56:48;10.13;;;7.57;;
38023;SDS011;23834;48.080;11.682;2023-09-12T00:59:13;8.50;;;7.70;;
38023;SDS011;23834;48.080;11.682;2023-09-12T01:01:40;8.90;;;8.00;;
38023;SDS011;23834;48.080;11.682;2023-09-12T01:04:05;8.67;;;7.77;;
38023;SDS011;23834;48.080;11.682;2023-09-12T02:04:28;12.83;;;8.40;;
38023;SDS011;23834;48.080;11.682;2023-09-12T02:06:54;8.67;;;7.70;;
38023;SDS011;23834;48.080;11.682;2023-09-12T02:09:19;7.90;;;7.20;;
38023;SDS011;23834;48.080;11.682;2023-09-12T02:11:44;8.97;;;8.17;;
38023;SDS011;23834;48.080;11.682;2023-09-12T02:14:10;9.00;;;8.10;;
38023;SDS011;23834;48.080;11.682;2023-09-12T02:16:36;8.30;;;7.60;;
38023;SDS011;23834;48.080;11.682;2023-09-12T02:19:02;8.40;;;7.60;;
38023;SDS011;23834;48.080;11.682;2023-09-12T02:21:27;8.97;;;8.07;;
38023;SDS011;23834;48.080;11.682;2023-09-12T02:23:52;8.50;;;7.63;;
38023;SDS011;23834;48.080;11.682;2023-09-12T02:26:18;8.50;;;7.80;;
38023;SDS011;23834;48.080;11.682;2023-09-12T02:28:43;8.73;;;7.83;;
38023;SDS011;23834;48.080;11.682;2023-09-12T02:31:10;8.23;;;7.53;;
38023;SDS011;23834;48.080;11.682;2023-09-12T02:33:37;8.43;;;7.67;;
38023;SDS011;23834;48.080;11.682;2023-09-12T02:36:02;8.50;;;7.70;;
38023;SDS011;23834;48.080;11.682;2023-09-12T02:38:27;8.93;;;8.13;;
38023;SDS011;23834;48.080;11.682;2023-09-12T02:40:52;8.33;;;7.53;;
38023;SDS011;23834;48.080;11.682;2023-09-12T02:43:18;8.90;;;7.93;;
38023;SDS011;23834;48.080;11.682;2023-09-12T02:45:43;7.70;;;7.07;;
38023;SDS011;23834;48.080;11.682;2023-09-12T02:48:08;8.57;;;7.70;;
38023;SDS011;23834;48.080;11.682;2023-09-12T02:50:33;9.00;;;8.10;;
38023;SDS011;23834;48.080;11.682;2023-09-12T02:52:58;8.63;;;7.83;;
38023;SDS011;23834;48.080;11.682;2023-09-12T02:55:24;7.60;;;6.80;;
38023;SDS011;23834;48.080;11.682;2023-09-12T02:57:49;8.40;;;7.60;;
38023;SDS011;23834;48.080;11.682;2023-09-12T03:00:14;8.40;;;7.60;;
38023;SDS011;23834;48.080;11.682;2023-09-12T03:02:39;7.93;;;7.13;;
38023;SDS011;23834;48.080;11.682;2023-09-12T03:05:04;8.03;;;7.33;;
38023;SDS011;23834;48.080;11.682;2023-09-12T03:07:30;8.70;;;7.90;;
38023;SDS011;23834;48.080;11.682;2023-09-12T03:09:55;9.33;;;7.70;;
38023;SDS011;23834;48.080;11.682;2023-09-12T03:12:20;8.07;;;7.37;;
38023;SDS011;23834;48.080;11.682;2023-09-12T03:14:46;8.50;;;7.80;;
38023;SDS011;23834;48.080;11.682;2023-09-12T03:17:11;8.20;;;7.40;;
38023;SDS011;23834;48.080;11.682;2023-09-12T03:19:36;8.03;;;7.23;;
38023;SDS011;23834;48.080;11.682;2023-09-12T03:22:01;8.40;;;7.60;;
38023;SDS011;23834;48.080;11.682;2023-09-12T03:24:26;8.53;;;7.70;;
38023;SDS011;23834;48.080;11.682;2023-09-12T03:26:53;9.17;;;8.27;;
38023;SDS011;23834;48.080;11.682;2023-09-12T03:29:19;8.40;;;7.53;;
38023;SDS011;23834;48.080;11.682;2023-09-12T03:31:44;7.97;;;7.37;;
38023;SDS011;23834;48.080;11.682;2023-09-12T03:34:09;8.67;;;7.87;;
38023;SDS011;23834;48.080;11.682;2023-09-12T03:36:34;8.93;;;8.03;;
38023;SDS011;23834;48.080;11.682;2023-09-12T03:38:59;8.33;;;7.60;;
38023;SDS011;23834;48.080;11.682;2023-09-12T03:41:25;8.93;;;8.07;;
38023;SDS011;23834;48.080;11.682;2023-09-12T03:43:53;7.83;;;7.13;;
38023;SDS011;23834;48.080;11.682;2023-09-12T03:46:19;7.83;;;7.13;;
38023;SDS011;23834;48.080;11.682;2023-09-12T03:48:45;9.30;;;8.47;;
38023;SDS011;23834;48.080;11.682;2023-09-12T03:51:10;8.10;;;7.30;;
38023;SDS011;23834;48.080;11.682;2023-09-12T03:53:36;8.87;;;8.07;;
38023;SDS011;23834;48.080;11.682;2023-09-12T03:56:01;8.70;;;7.80;;
38023;SDS011;23834;48.080;11.682;2023-09-12T03:58:26;7.57;;;6.87;;
38023;SDS011;23834;48.080;11.682;2023-09-12T04:00:51;9.20;;;7.90;;
38023;SDS011;23834;48.080;11.682;2023-09-12T04:03:16;8.53;;;7.73;;
38023;SDS011;23834;48.080;11.682;2023-09-12T04:05:42;7.57;;;6.87;;
38023;SDS011;23834;48.080;11.682;2023-09-12T04:08:07;8.10;;;7.40;;
38023;SDS011;23834;48.080;11.682;2023-09-12T04:10:32;7.70;;;7.00;;
38023;SDS011;23834;48.080;11.682;2023-09-12T04:12:57;8.40;;;7.67;;
38023;SDS011;23834;48.080;11.682;2023-09-12T04:15:22;8.73;;;7.93;;
38023;SDS011;23834;48.080;11.682;2023-09-12T04:17:48;8.00;;;7.23;;
38023;SDS011;23834;48.080;11.682;2023-09-12T04:20:13;8.30;;;7.47;;
38023;SDS011;23834;48.080;11.682;2023-09-12T04:22:38;8.10;;;7.30;;
38023;SDS011;23834;48.080;11.682;2023-09-12T04:25:04;7.73;;;7.00;;
38023;SDS011;23834;48.080;11.682;2023-09-12T04:27:29;8.17;;;7.37;;
38023;SDS011;23834;48.080;11.682;2023-09-12T04:29:54;8.63;;;7.83;;
38023;SDS011;23834;48.080;11.682;2023-09-12T04:32:19;8.00;;;7.30;;
38023;SDS011;23834;48.080;11.682;2023-09-12T04:34:48;7.63;;;6.90;;
38023;SDS011;23834;48.080;11.682;2023-09-12T04:37:13;8.30;;;7.17;;
38023;SDS011;23834;48.080;11.682;2023-09-12T04:39:38;7.10;;;6.40;;
38023;SDS011;23834;48.080;11.682;2023-09-12T04:42:04;7.90;;;6.77;;
38023;SDS011;23834;48.080;11.682;2023-09-12T04:44:30;7.70;;;7.10;;
38023;SDS011;23834;48.080;11.682;2023-09-12T04:46:59;7.77;;;7.00;;
38023;SDS011;23834;48.080;11.682;2023-09-12T04:49:24;8.93;;;6.47;;
38023;SDS011;23834;48.080;11.682;2023-09-12T04:51:49;8.13;;;7.37;;
38023;SDS011;23834;48.080;11.682;2023-09-12T04:54:15;9.07;;;7.93;;
38023;SDS011;23834;48.080;11.682;2023-09-12T04:56:40;8.30;;;7.50;;
38023;SDS011;23834;48.080;11.682;2023-09-12T04:59:05;7.90;;;7.10;;
38023;SDS011;23834;48.080;11.682;2023-09-12T05:01:31;8.17;;;6.97;;
38023;SDS011;23834;48.080;11.682;2023-09-12T05:03:57;8.23;;;7.20;;
38023;SDS011;23834;48.080;11.682;2023-09-12T05:06:22;8.07;;;7.30;;
38023;SDS011;23834;48.080;11.682;2023-09-12T05:08:47;7.50;;;6.80;;
38023;SDS011;23834;48.080;11.682;2023-09-12T05:11:12;8.30;;;7.60;;
38023;SDS011;23834;48.080;11.682;2023-09-12T05:13:37;7.47;;;6.87;;
38023;SDS011;23834;48.080;11.682;2023-09-12T05:16:02;8.67;;;7.87;;
38023;SDS011;23834;48.080;11.682;2023-09-12T05:18:28;7.97;;;7.27;;
38023;SDS011;23834;48.080;11.682;2023-09-12T05:20:53;7.50;;;6.90;;
38023;SDS011;23834;48.080;11.682;2023-09-12T05:23:19;8.40;;;7.43;;
38023;SDS011;23834;48.080;11.682;2023-09-12T05:25:44;7.80;;;7.10;;
38023;SDS011;23834;48.080;11.682;2023-09-12T05:28:09;8.13;;;7.33;;
38023;SDS011;23834;48.080;11.682;2023-09-12T05:30:34;8.87;;;7.97;;
38023;SDS011;23834;48.080;11.682;2023-09-12T05:33:00;8.70;;;7.23;;
38023;SDS011;23834;48.080;11.682;2023-09-12T05:35:25;7.63;;;6.83;;
38023;SDS011;23834;48.080;11.682;2023-09-12T05:37:50;8.20;;;7.30;;
38023;SDS011;23834;48.080;11.682;2023-09-12T05:40:16;7.77;;;6.97;;
38023;SDS011;23834;48.080;11.682;2023-09-12T05:42:41;7.80;;;7.03;;
38023;SDS011;23834;48.080;11.682;2023-09-12T05:45:06;8.07;;;7.33;;
38023;SDS011;23834;48.080;11.682;2023-09-12T05:47:32;8.37;;;7.57;;
38023;SDS011;23834;48.080;11.682;2023-09-12T05:49:57;7.90;;;7.20;;
38023;SDS011;23834;48.080;11.682;2023-09-12T05:52:24;7.80;;;7.00;;
38023;SDS011;23834;48.080;11.682;2023-09-12T05:54:49;8.03;;;7.33;;
38023;SDS011;23834;48.080;11.682;2023-09-12T05:57:15;8.20;;;7.50;;
38023;SDS011;23834;48.080;11.682;2023-09-12T05:59:40;8.20;;;7.40;;
38023;SDS011;23834;48.080;11.682;2023-09-12T06:02:06;8.50;;;7.60;;
38023;SDS011;23834;48.080;11.682;2023-09-12T06:04:33;8.83;;;8.03;;
38023;SDS011;23834;48.080;11.682;2023-09-12T06:06:58;8.97;;;8.07;;
38023;SDS011;23834;48.080;11.682;2023-09-12T06:09:24;7.80;;;7.10;;
38023;SDS011;23834;48.080;11.682;2023-09-12T06:11:50;8.23;;;7.30;;
38023;SDS011;23834;48.080;11.682;2023-09-12T06:14:15;7.93;;;7.30;;
38023;SDS011;23834;48.080;11.682;2023-09-12T06:16:41;8.23;;;7.43;;
38023;SDS011;23834;48.080;11.682;2023-09-12T06:19:06;8.67;;;7.80;;
38023;SDS011;23834;48.080;11.682;2023-09-12T06:21:31;8.27;;;7.40;;
38023;SDS011;23834;48.080;11.682;2023-09-12T06:24:10;7.80;;;7.10;;
38023;SDS011;23834;48.080;11.682;2023-09-12T06:26:38;7.97;;;7.17;;
38023;SDS011;23834;48.080;11.682;2023-09-12T06:29:03;7.50;;;6.80;;
38023;SDS011;23834;48.080;11.682;2023-09-12T06:31:29;7.30;;;6.40;;
38023;SDS011;23834;48.080;11.682;2023-09-12T06:33:54;8.57;;;7.77;;
38023;SDS011;23834;48.080;11.682;2023-09-12T06:36:19;8.07;;;6.90;;
38023;SDS011;23834;48.080;11.682;2023-09-12T06:38:45;7.47;;;6.77;;
38023;SDS011;23834;48.080;11.682;2023-09-12T06:41:10;7.60;;;6.90;;
38023;SDS011;23834;48.080;11.682;2023-09-12T06:43:35;7.90;;;7.20;;
38023;SDS011;23834;48.080;11.682;2023-09-12T06:46:00;7.50;;;6.80;;
38023;SDS011;23834;48.080;11.682;2023-09-12T06:48:25;8.57;;;6.93;;
38023;SDS011;23834;48.080;11.682;2023-09-12T06:50:51;7.77;;;7.17;;
38023;SDS011;23834;48.080;11.682;2023-09-12T06:53:17;7.87;;;7.10;;
38023;SDS011;23834;48.080;11.682;2023-09-12T06:55:42;7.83;;;7.03;;
38023;SDS011;23834;48.080;11.682;2023-09-12T06:58:07;9.67;;;7.80;;
38023;SDS011;23834;48.080;11.682;2023-09-12T07:00:33;7.90;;;7.10;;
38023;SDS011;23834;48.080;11.682;2023-09-12T07:02:58;7.77;;;7.10;;
38023;SDS011;23834;48.080;11.682;2023-09-12T07:05:23;7.73;;;6.97;;
38023;SDS011;23834;48.080;11.682;2023-09-12T07:07:48;7.93;;;7.17;;
38023;SDS011;23834;48.080;11.682;2023-09-12T07:10:13;8.80;;;8.00;;
38023;SDS011;23834;48.080;11.682;2023-09-12T07:12:38;7.53;;;6.83;;
38023;SDS011;23834;48.080;11.682;2023-09-12T07:15:04;9.37;;;7.77;;
38023;SDS011;23834;48.080;11.682;2023-09-12T07:17:29;10.50;;;7.10;;
38023;SDS011;23834;48.080;11.682;2023-09-12T07:19:54;8.13;;;7.10;;
38023;SDS011;23834;48.080;11.682;2023-09-12T07:22:20;7.50;;;6.80;;
38023;SDS011;23834;48.080;11.682;2023-09-12T07:24:45;8.30;;;7.50;;
38023;SDS011;23834;48.080;11.682;2023-09-12T07:27:10;8.43;;;7.53;;
38023;SDS011;23834;48.080;11.682;2023-09-12T07:29:35;8.20;;;7.17;;
38023;SDS011;23834;48.080;11.682;2023-09-12T07:32:00;8.97;;;7.33;;
38023;SDS011;23834;48.080;11.682;2023-09-12T07:34:26;9.20;;;8.03;;
38023;SDS011;23834;48.080;11.682;2023-09-12T07:36:51;7.40;;;6.70;;
38023;SDS011;23834;48.080;11.682;2023-09-12T07:39:16;8.17;;;7.30;;
38023;SDS011;23834;48.080;11.682;2023-09-12T07:41:41;7.70;;;7.00;;
38023;SDS011;23834;48.080;11.682;2023-09-12T07:44:07;9.23;;;7.73;;
38023;SDS011;23834;48.080;11.682;2023-09-12T07:46:35;7.73;;;7.03;;
38023;SDS011;23834;48.080;11.682;2023-09-12T07:49:01;8.17;;;7.37;;
38023;SDS011;23834;48.080;11.682;2023-09-12T07:51:26;7.53;;;6.83;;
38023;SDS011;23834;48.080;11.682;2023-09-12T07:53:51;8.47;;;7.67;;
38023;SDS011;23834;48.080;11.682;2023-09-12T07:56:16;8.30;;;7.50;;
38023;SDS011;23834;48.080;11.682;2023-09-12T07:58:41;7.40;;;6.47;;
38023;SDS011;23834;48.080;11.682;2023-09-12T08:01:07;8.30;;;7.60;;
38023;SDS011;23834;48.080;11.682;2023-09-12T08:03:34;8.20;;;7.40;;
38023;SDS011;23834;48.080;11.682;2023-09-12T08:05:59;7.70;;;6.90;;
38023;SDS011;23834;48.080;11.682;2023-09-12T08:08:24;7.20;;;6.57;;
38023;SDS011;23834;48.080;11.682;2023-09-12T08:10:50;7.13;;;6.43;;
38023;SDS011;23834;48.080;11.682;2023-09-12T08:13:15;7.93;;;6.90;;
38023;SDS011;23834;48.080;11.682;2023-09-12T08:15:40;7.40;;;6.80;;
38023;SDS011;23834;48.080;11.682;2023-09-12T08:18:05;7.50;;;6.80;;
38023;SDS011;23834;48.080;11.682;2023-09-12T08:20:30;7.90;;;7.10;;
38023;SDS011;23834;48.080;11.682;2023-09-12T08:22:56;8.27;;;7.57;;
38023;SDS011;23834;48.080;11.682;2023-09-12T08:25:21;8.07;;;7.37;;
38023;SDS011;23834;48.080;11.682;2023-09-12T08:27:46;7.57;;;6.87;;
38023;SDS011;23834;48.080;11.682;2023-09-12T08:30:12;8.43;;;7.63;;
38023;SDS011;23834;48.080;11.682;2023-09-12T08:32:37;9.33;;;7.87;;
38023;SDS011;23834;48.080;11.682;2023-09-12T08:35:04;8.30;;;7.30;;
38023;SDS011;23834;48.080;11.682;2023-09-12T08:37:30;7.63;;;7.03;;
38023;SDS011;23834;48.080;11.682;2023-09-12T08:39:55;7.33;;;6.60;;
38023;SDS011;23834;48.080;11.682;2023-09-12T08:42:23;7.90;;;7.20;;
38023;SDS011;23834;48.080;11.682;2023-09-12T08:44:51;7.20;;;6.50;;
38023;SDS011;23834;48.080;11.682;2023-09-12T08:47:17;8.10;;;7.40;;
38023;SDS011;23834;48.080;11.682;2023-09-12T08:49:44;7.40;;;6.70;;
38023;SDS011;23834;48.080;11.682;2023-09-12T08:52:09;8.07;;;7.27;;
38023;SDS011;23834;48.080;11.682;2023-09-12T08:54:34;6.73;;;6.17;;
38023;SDS011;23834;48.080;11.682;2023-09-12T08:57:01;7.47;;;6.60;;
38023;SDS011;23834;48.080;11.682;2023-09-12T08:59:27;8.07;;;7.37;;
38023;SDS011;23834;48.080;11.682;2023-09-12T09:01:52;7.57;;;6.87;;
38023;SDS011;23834;48.080;11.682;2023-09-12T09:04:19;8.07;;;7.27;;
38023;SDS011;23834;48.080;11.682;2023-09-12T09:06:45;7.90;;;7.10;;
38023;SDS011;23834;48.080;11.682;2023-09-12T09:09:10;8.17;;;7.37;;
38023;SDS011;23834;48.080;11.682;2023-09-12T09:11:36;7.10;;;6.50;;
38023;SDS011;23834;48.080;11.682;2023-09-12T09:14:02;8.17;;;7.30;;
38023;SDS011;23834;48.080;11.682;2023-09-12T09:16:27;7.27;;;6.57;;
38023;SDS011;23834;48.080;11.682;2023-09-12T09:18:58;7.47;;;6.77;;
38023;SDS011;23834;48.080;11.682;2023-09-12T09:21:24;7.13;;;6.53;;
38023;SDS011;23834;48.080;11.682;2023-09-12T09:23:50;8.57;;;7.47;;
38023;SDS011;23834;48.080;11.682;2023-09-12T09:26:16;7.67;;;6.87;;
38023;SDS011;23834;48.080;11.682;2023-09-12T09:28:41;7.13;;;6.43;;
38023;SDS011;23834;48.080;11.682;2023-09-12T09:31:09;7.80;;;7.07;;
38023;SDS011;23834;48.080;11.682;2023-09-12T09:33:35;6.90;;;6.30;;
38023;SDS011;23834;48.080;11.682;2023-09-12T09:36:04;7.37;;;6.67;;
38023;SDS011;23834;48.080;11.682;2023-09-12T09:38:29;7.57;;;6.87;;
38023;SDS011;23834;48.080;11.682;2023-09-12T09:40:55;7.00;;;6.30;;
38023;SDS011;23834;48.080;11.682;2023-09-12T09:43:20;6.80;;;6.20;;
38023;SDS011;23834;48.080;11.682;2023-09-12T09:45:46;7.97;;;7.17;;
38023;SDS011;23834;48.080;11.682;2023-09-12T09:48:21;7.07;;;6.40;;
38023;SDS011;23834;48.080;11.682;2023-09-12T09:50:46;7.63;;;6.93;;
38023;SDS011;23834;48.080;11.682;2023-09-12T09:53:11;7.73;;;7.00;;
38023;SDS011;23834;48.080;11.682;2023-09-12T09:55:37;7.30;;;6.70;;
38023;SDS011;23834;48.080;11.682;2023-09-12T09:58:02;6.93;;;6.40;;
38023;SDS011;23834;48.080;11.682;2023-09-12T10:00:28;6.80;;;6.20;;
38023;SDS011;23834;48.080;11.682;2023-09-12T10:02:54;7.87;;;7.07;;
38023;SDS011;23834;48.080;11.682;2023-09-12T10:05:20;7.40;;;6.80;;
38023;SDS011;23834;48.080;11.682;2023-09-12T10:07:47;7.50;;;6.80;;
38023;SDS011;23834;48.080;11.682;2023-09-12T10:10:12;7.00;;;6.40;;
38023;SDS011;23834;48.080;11.682;2023-09-12T10:12:39;7.23;;;6.60;;
38023;SDS011;23834;48.080;11.682;2023-09-12T10:15:08;7.30;;;6.60;;
38023;SDS011;23834;48.080;11.682;2023-09-12T10:17:36;7.00;;;6.40;;
38023;SDS011;23834;48.080;11.682;2023-09-12T10:20:02;7.10;;;6.50;;
38023;SDS011;23834;48.080;11.682;2023-09-12T10:22:36;7.30;;;6.70;;
38023;SDS011;23834;48.080;11.682;2023-09-12T10:25:02;7.07;;;6.47;;
38023;SDS011;23834;48.080;11.682;2023-09-12T10:27:28;6.97;;;6.23;;
38023;SDS011;23834;48.080;11.682;2023-09-12T10:29:54;7.03;;;6.40;;
38023;SDS011;23834;48.080;11.682;2023-09-12T10:32:20;7.10;;;6.40;;
38023;SDS011;23834;48.080;11.682;2023-09-12T10:34:46;8.23;;;7.43;;
38023;SDS011;23834;48.080;11.682;2023-09-12T10:37:16;7.90;;;7.20;;
38023;SDS011;23834;48.080;11.682;2023-09-12T10:39:42;7.60;;;6.90;;
38023;SDS011;23834;48.080;11.682;2023-09-12T10:42:08;7.97;;;7.27;;
38023;SDS011;23834;48.080;11.682;2023-09-12T10:44:33;7.63;;;6.93;;
38023;SDS011;23834;48.080;11.682;2023-09-12T10:46:58;6.70;;;6.10;;
38023;SDS011;23834;48.080;11.682;2023-09-12T10:49:24;8.13;;;7.43;;
38023;SDS011;23834;48.080;11.682;2023-09-12T10:51:49;7.57;;;6.97;;
38023;SDS011;23834;48.080;11.682;2023-09-12T10:54:15;7.17;;;6.47;;
38023;SDS011;23834;48.080;11.682;2023-09-12T10:56:41;7.20;;;6.60;;
38023;SDS011;23834;48.080;11.682;2023-09-12T11:01:32;7.20;;;6.50;;
38023;SDS011;23834;48.080;11.682;2023-09-12T11:03:57;7.40;;;6.70;;
38023;SDS011;23834;48.080;11.682;2023-09-12T11:06:27;7.50;;;6.67;;
38023;SDS011;23834;48.080;11.682;2023-09-12T11:09:53;7.20;;;6.60;;
38023;SDS011;23834;48.080;11.682;2023-09-12T11:11:54;7.70;;;7.00;;
38023;SDS011;23834;48.080;11.682;2023-09-12T11:14:20;6.90;;;6.30;;
38023;SDS011;23834;48.080;11.682;2023-09-12T11:19:29;10.07;;;6.97;;
38023;SDS011;23834;48.080;11.682;2023-09-12T11:22:20;7.00;;;6.40;;
38023;SDS011;23834;48.080;11.682;2023-09-12T11:24:45;7.90;;;7.20;;
38023;SDS011;23834;48.080;11.682;2023-09-12T11:27:12;6.93;;;6.33;;
38023;SDS011;23834;48.080;11.682;2023-09-12T11:29:38;7.00;;;6.40;;
38023;SDS011;23834;48.080;11.682;2023-09-12T11:32:04;6.97;;;6.43;;
38023;SDS011;23834;48.080;11.682;2023-09-12T11:34:35;7.03;;;6.33;;
38023;SDS011;23834;48.080;11.682;2023-09-12T11:37:01;7.37;;;6.67;;
38023;SDS011;23834;48.080;11.682;2023-09-12T11:39:28;6.40;;;5.70;;
38023;SDS011;23834;48.080;11.682;2023-09-12T11:41:55;7.10;;;6.50;;
38023;SDS011;23834;48.080;11.682;2023-09-12T11:44:20;7.30;;;6.70;;
38023;SDS011;23834;48.080;11.682;2023-09-12T11:46:49;6.90;;;6.30;;
38023;SDS011;23834;48.080;11.682;2023-09-12T11:49:15;7.93;;;7.13;;
38023;SDS011;23834;48.080;11.682;2023-09-12T11:51:47;6.80;;;6.30;;
38023;SDS011;23834;48.080;11.682;2023-09-12T11:54:14;6.50;;;5.90;;
38023;SDS011;23834;48.080;11.682;2023-09-12T11:56:39;7.57;;;6.97;;
38023;SDS011;23834;48.080;11.682;2023-09-12T11:59:04;7.33;;;6.67;;
38023;SDS011;23834;48.080;11.682;2023-09-12T12:01:30;6.37;;;5.77;;
38023;SDS011;23834;48.080;11.682;2023-09-12T12:03:56;7.20;;;6.60;;
38023;SDS011;23834;48.080;11.682;2023-09-12T12:06:22;7.47;;;6.77;;
38023;SDS011;23834;48.080;11.682;2023-09-12T12:08:47;6.00;;;5.60;;
38023;SDS011;23834;48.080;11.682;2023-09-12T12:11:12;6.93;;;6.33;;
38023;SDS011;23834;48.080;11.682;2023-09-12T12:13:38;7.37;;;6.70;;
38023;SDS011;23834;48.080;11.682;2023-09-12T12:16:15;6.37;;;5.87;;
38023;SDS011;23834;48.080;11.682;2023-09-12T12:18:41;7.23;;;6.33;;
38023;SDS011;23834;48.080;11.682;2023-09-12T12:21:07;7.30;;;6.60;;
38023;SDS011;23834;48.080;11.682;2023-09-12T12:23:32;6.97;;;6.37;;
38023;SDS011;23834;48.080;11.682;2023-09-12T12:26:02;6.90;;;6.30;;
38023;SDS011;23834;48.080;11.682;2023-09-12T12:28:27;6.87;;;6.00;;
38023;SDS011;23834;48.080;11.682;2023-09-12T12:30:52;7.10;;;6.40;;
38023;SDS011;23834;48.080;11.682;2023-09-12T12:33:19;7.37;;;6.67;;
38023;SDS011;23834;48.080;11.682;2023-09-12T12:35:44;7.20;;;6.50;;
38023;SDS011;23834;48.080;11.682;2023-09-12T12:38:09;7.00;;;6.40;;
38023;SDS011;23834;48.080;11.682;2023-09-12T12:40:37;7.03;;;6.40;;
38023;SDS011;23834;48.080;11.682;2023-09-12T12:43:02;7.00;;;6.30;;
38023;SDS011;23834;48.080;11.682;2023-09-12T12:45:28;6.33;;;5.73;;
38023;SDS011;23834;48.080;11.682;2023-09-12T12:47:59;6.80;;;6.20;;
38023;SDS011;23834;48.080;11.682;2023-09-12T12:50:25;6.80;;;6.20;;
38023;SDS011;23834;48.080;11.682;2023-09-12T12:52:50;8.67;;;6.90;;
38023;SDS011;23834;48.080;11.682;2023-09-12T12:55:15;6.53;;;5.93;;
38023;SDS011;23834;48.080;11.682;2023-09-12T12:57:42;6.70;;;5.97;;
38023;SDS011;23834;48.080;11.682;2023-09-12T13:00:08;6.60;;;6.00;;
38023;SDS011;23834;48.080;11.682;2023-09-12T13:02:35;6.87;;;6.27;;
38023;SDS011;23834;48.080;11.682;2023-09-12T13:05:01;6.60;;;6.00;;
38023;SDS011;23834;48.080;11.682;2023-09-12T13:07:26;7.17;;;6.47;;
38023;SDS011;23834;48.080;11.682;2023-09-12T13:09:51;8.20;;;6.50;;
38023;SDS011;23834;48.080;11.682;2023-09-12T13:12:16;6.20;;;5.70;;
38023;SDS011;23834;48.080;11.682;2023-09-12T13:14:42;7.03;;;6.33;;
38023;SDS011;23834;48.080;11.682;2023-09-12T13:17:09;7.20;;;6.00;;
38023;SDS011;23834;48.080;11.682;2023-09-12T13:19:34;6.30;;;5.80;;
38023;SDS011;23834;48.080;11.682;2023-09-12T13:22:00;6.90;;;6.20;;
38023;SDS011;23834;48.080;11.682;2023-09-12T13:24:25;6.77;;;6.17;;
38023;SDS011;23834;48.080;11.682;2023-09-12T13:26:51;7.00;;;6.40;;
38023;SDS011;23834;48.080;11.682;2023-09-12T13:29:16;6.73;;;6.03;;
38023;SDS011;23834;48.080;11.682;2023-09-12T13:31:41;7.07;;;6.40;;
38023;SDS011;23834;48.080;11.682;2023-09-12T13:34:07;6.30;;;5.70;;
38023;SDS011;23834;48.080;11.682;2023-09-12T13:36:32;7.00;;;6.40;;
38023;SDS011;23834;48.080;11.682;2023-09-12T13:38:57;6.50;;;5.97;;
38023;SDS011;23834;48.080;11.682;2023-09-12T13:41:22;7.20;;;6.50;;
38023;SDS011;23834;48.080;11.682;2023-09-12T13:43:48;6.40;;;5.90;;
38023;SDS011;23834;48.080;11.682;2023-09-12T13:46:13;6.43;;;5.83;;
38023;SDS011;23834;48.080;11.682;2023-09-12T13:48:38;7.13;;;6.53;;
38023;SDS011;23834;48.080;11.682;2023-09-12T13:51:03;6.53;;;5.90;;
38023;SDS011;23834;48.080;11.682;2023-09-12T13:53:29;7.27;;;6.57;;
38023;SDS011;23834;48.080;11.682;2023-09-12T13:55:54;7.20;;;6.50;;
38023;SDS011;23834;48.080;11.682;2023-09-12T13:58:22;7.70;;;7.00;;
38023;SDS011;23834;48.080;11.682;2023-09-12T14:00:47;7.30;;;6.50;;
38023;SDS011;23834;48.080;11.682;2023-09-12T14:03:12;7.07;;;6.37;;
38023;SDS011;23834;48.080;11.682;2023-09-12T14:05:37;6.40;;;5.80;;
38023;SDS011;23834;48.080;11.682;2023-09-12T14:08:02;6.53;;;5.93;;
38023;SDS011;23834;48.080;11.682;2023-09-12T14:10:28;6.47;;;5.87;;
38023;SDS011;23834;48.080;11.682;2023-09-12T14:12:53;7.33;;;6.63;;
38023;SDS011;23834;48.080;11.682;2023-09-12T14:15:18;6.27;;;5.73;;
38023;SDS011;23834;48.080;11.682;2023-09-12T14:17:43;7.47;;;6.30;;
38023;SDS011;23834;48.080;11.682;2023-09-12T14:20:09;6.10;;;5.60;;
38023;SDS011;23834;48.080;11.682;2023-09-12T14:22:34;6.73;;;6.10;;
38023;SDS011;23834;48.080;11.682;2023-09-12T14:24:59;6.90;;;6.30;;
38023;SDS011;23834;48.080;11.682;2023-09-12T14:27:25;7.03;;;6.33;;
38023;SDS011;23834;48.080;11.682;2023-09-12T14:29:50;6.70;;;6.10;;
38023;SDS011;23834;48.080;11.682;2023-09-12T14:32:16;6.70;;;6.07;;
38023;SDS011;23834;48.080;11.682;2023-09-12T14:34:41;7.20;;;6.50;;
38023;SDS011;23834;48.080;11.682;2023-09-12T14:37:06;6.10;;;5.60;;
38023;SDS011;23834;48.080;11.682;2023-09-12T14:39:31;6.73;;;6.13;;
38023;SDS011;23834;48.080;11.682;2023-09-12T14:41:56;6.77;;;6.17;;
38023;SDS011;23834;48.080;11.682;2023-09-12T14:44:22;6.53;;;5.93;;
38023;SDS011;23834;48.080;11.682;2023-09-12T14:46:47;6.30;;;5.80;;
38023;SDS011;23834;48.080;11.682;2023-09-12T14:49:13;6.60;;;6.07;;
38023;SDS011;23834;48.080;11.682;2023-09-12T14:51:38;6.90;;;6.10;;
38023;SDS011;23834;48.080;11.682;2023-09-12T14:54:03;6.20;;;5.70;;
38023;SDS011;23834;48.080;11.682;2023-09-12T14:56:29;6.40;;;5.80;;
38023;SDS011;23834;48.080;11.682;2023-09-12T14:58:54;7.30;;;6.60;;
38023;SDS011;23834;48.080;11.682;2023-09-12T15:01:19;6.10;;;5.60;;
38023;SDS011;23834;48.080;11.682;2023-09-12T15:03:45;7.00;;;6.30;;
38023;SDS011;23834;48.080;11.682;2023-09-12T15:06:10;6.87;;;6.13;;
38023;SDS011;23834;48.080;11.682;2023-09-12T15:08:36;6.57;;;5.93;;
38023;SDS011;23834;48.080;11.682;2023-09-12T15:11:02;6.10;;;5.50;;
38023;SDS011;23834;48.080;11.682;2023-09-12T15:13:27;6.37;;;5.77;;
38023;SDS011;23834;48.080;11.682;2023-09-12T15:15:53;6.03;;;5.53;;
38023;SDS011;23834;48.080;11.682;2023-09-12T15:18:18;6.67;;;6.07;;
38023;SDS011;23834;48.080;11.682;2023-09-12T15:20:43;6.60;;;6.00;;
38023;SDS011;23834;48.080;11.682;2023-09-12T15:23:08;5.63;;;5.13;;
38023;SDS011;23834;48.080;11.682;2023-09-12T15:25:34;6.30;;;5.70;;
38023;SDS011;23834;48.080;11.682;2023-09-12T15:28:01;7.00;;;6.40;;